Time;durP1;ratioP1;P1;durP2;ratioP2;P2;SDS_P1;SDS_P2;PMS_P1;PMS_P2;Temp;Humidity;BMP_temperature;BMP_pressure;BME280_temperature;BME280_humidity;BME280_pressure;Samples;Min_cycle;Max_cycle;Signal;HPM_P1;HPM_P2
2022/01/24 00:01:12;;;;;;;94.07;74.45;;;21.50;99.90;;;;;;4209160;28;20054;-65
2022/01/24 00:03:16;;;;;;;85.38;65.47;;;21.20;99.90;;;;;;4209536;28;20044;-67
2022/01/24 00:05:21;;;;;;;83.22;59.53;;;21.20;99.90;;;;;;4208911;28;20038;-69
2022/01/24 00:07:25;;;;;;;69.90;52.90;;;21.40;99.90;;;;;;4207122;28;20043;-67
2022/01/24 00:09:30;;;;;;;79.47;53.45;;;21.40;99.90;;;;;;4205928;28;20048;-68
2022/01/24 00:16:24;;;;;;;69.68;48.70;;;21.30;99.90;;;;;;4208586;28;20102;-67
2022/01/24 00:26:38;;;;;;;69.22;50.30;;;21.30;99.90;;;;;;4206236;28;20051;-67
2022/01/24 00:27:43;;;;;;;75.95;54.45;;;21.10;99.90;;;;;;4207132;28;20051;-68
2022/01/24 00:29:48;;;;;;;78.18;56.78;;;21.20;99.90;;;;;;4191378;28;20036;-67
2022/01/24 00:31:53;;;;;;;84.18;59.20;;;21.20;99.90;;;;;;4207919;28;20052;-66
2022/01/24 00:33:57;;;;;;;75.88;54.78;;;21.10;99.90;;;;;;4209575;28;20073;-68
2022/01/24 00:36:01;;;;;;;76.57;57.15;;;21.20;99.90;;;;;;4206624;28;20051;-68
2022/01/24 00:38:06;;;;;;;74.28;55.85;;;21.40;99.90;;;;;;4207509;28;20116;-68
2022/01/24 00:40:11;;;;;;;80.85;57.42;;;21.40;99.90;;;;;;4208391;28;20521;-66
2022/01/24 00:46:43;;;;;;;90.05;62.45;;;21.50;99.90;;;;;;4208450;28;20135;-67
2022/01/24 00:55:34;;;;;;;67.97;54.28;;;21.40;99.90;;;;;;4206334;28;20066;-67
2022/01/24 00:57:39;;;;;;;70.22;53.70;;;21.50;99.90;;;;;;4206145;28;20047;-67
2022/01/24 00:59:43;;;;;;;66.80;54.40;;;21.50;99.90;;;;;;4204747;28;20132;-67
2022/01/24 01:01:47;;;;;;;69.93;54.83;;;21.50;99.90;;;;;;4205657;28;20085;-66
2022/01/24 01:03:52;;;;;;;67.03;52.58;;;21.70;99.90;;;;;;4189524;28;20072;-67
2022/01/24 01:19:14;;;;;;;79.03;59.47;;;22.10;99.90;;;;;;4187347;28;20056;-67
2022/01/24 01:21:19;;;;;;;84.78;61.90;;;22.20;99.90;;;;;;4205883;28;20092;-66
2022/01/24 01:23:23;;;;;;;82.10;61.72;;;22.10;99.90;;;;;;4206272;28;20039;-66
2022/01/24 01:25:27;;;;;;;81.97;61.17;;;22.20;99.90;;;;;;4205210;28;20581;-66
2022/01/24 01:27:38;;;;;;;82.97;63.50;;;22.30;99.90;;;;;;4188938;28;20037;-68
2022/01/24 01:29:56;;;;;;;76.03;61.30;;;22.30;99.90;;;;;;4206482;28;20054;-68
2022/01/24 01:37:09;;;;;;;89.65;66.50;;;22.40;99.90;;;;;;4205072;28;20048;-67
2022/01/24 01:52:41;;;;;;;132.85;105.95;;;22.70;99.90;;;;;;4204924;28;20055;-68
2022/01/24 01:54:53;;;;;;;148.63;119.70;;;22.80;99.90;;;;;;4204996;28;20044;-68
2022/01/24 01:56:57;;;;;;;145.05;116.85;;;22.90;99.90;;;;;;4204452;28;20043;-68
2022/01/24 01:59:02;;;;;;;149.77;119.82;;;22.90;99.90;;;;;;4204359;28;20049;-68
2022/01/24 02:01:08;;;;;;;150.15;118.00;;;23.00;99.90;;;;;;4186752;28;20040;-66
2022/01/24 02:03:17;;;;;;;152.65;118.63;;;23.10;99.90;;;;;;4206347;28;20051;-67
2022/01/24 02:05:22;;;;;;;143.52;116.10;;;23.10;99.90;;;;;;4197622;28;20071;-68
2022/01/24 02:07:27;;;;;;;156.18;116.30;;;23.20;99.90;;;;;;4205664;28;20052;-67
2022/01/24 02:09:32;;;;;;;144.38;112.82;;;23.30;99.90;;;;;;4201227;28;20051;-68
2022/01/24 02:11:37;;;;;;;131.82;106.07;;;23.30;99.90;;;;;;4187192;28;20039;-68
2022/01/24 02:13:41;;;;;;;135.63;110.13;;;23.30;99.90;;;;;;4207089;28;20036;-67
2022/01/24 02:15:59;;;;;;;138.73;109.50;;;23.40;99.90;;;;;;4207585;28;20109;-68
2022/01/24 02:20:38;;;;;;;133.23;106.65;;;23.40;99.90;;;;;;4188842;28;20048;-65
2022/01/24 02:25:06;;;;;;;;;;;23.50;99.90;;;;;;4211317;28;20036;-65
2022/01/24 02:27:11;;;;;;;108.65;86.97;;;23.60;99.90;;;;;;4211031;28;20309;-66
2022/01/24 02:29:29;;;;;;;96.80;77.70;;;23.60;99.90;;;;;;4213715;28;20047;-66
2022/01/24 02:31:49;;;;;;;91.65;74.40;;;23.60;99.90;;;;;;4205318;28;20071;-65
2022/01/24 02:33:55;;;;;;;78.00;59.97;;;23.70;99.90;;;;;;4207476;28;20043;-66
2022/01/24 02:35:59;;;;;;;71.47;56.75;;;23.70;99.90;;;;;;4208352;28;20101;-68
2022/01/24 02:40:31;;;;;;;65.10;52.47;;;23.80;99.90;;;;;;4208287;28;20112;-67
2022/01/24 02:49:29;;;;;;;74.50;56.40;;;24.00;99.90;;;;;;4212332;28;20040;-67
2022/01/24 02:53:44;;;;;;;59.08;43.55;;;24.10;99.90;;;;;;4207812;28;20656;-69
2022/01/24 02:55:49;;;;;;;62.75;45.47;;;24.20;99.90;;;;;;4206815;28;20051;-67
2022/01/24 02:57:53;;;;;;;52.80;40.13;;;24.20;99.90;;;;;;4208012;28;20125;-67
2022/01/24 02:59:58;;;;;;;44.65;35.53;;;24.30;99.90;;;;;;4207893;28;20105;-67
2022/01/24 03:02:03;;;;;;;39.78;30.77;;;24.30;99.90;;;;;;4207280;28;20094;-68
2022/01/24 03:04:09;;;;;;;39.33;30.17;;;24.40;99.90;;;;;;4208303;28;20032;-67
2022/01/24 03:06:16;;;;;;;44.58;33.25;;;24.40;99.90;;;;;;4208081;28;20067;-67
2022/01/24 03:08:22;;;;;;;40.40;31.70;;;24.50;99.90;;;;;;4207217;28;20044;-68
2022/01/24 03:10:34;;;;;;;37.00;29.75;;;24.60;99.90;;;;;;4206451;28;20044;-66
2022/01/24 03:12:45;;;;;;;37.13;27.52;;;24.60;99.90;;;;;;4207345;28;20051;-67
2022/01/24 03:14:55;;;;;;;35.05;26.08;;;24.60;99.90;;;;;;4206632;28;20078;-67
2022/01/24 03:17:03;;;;;;;37.55;27.05;;;24.70;99.90;;;;;;4189283;28;20071;-67
2022/01/24 03:19:08;;;;;;;34.60;27.77;;;24.70;99.90;;;;;;4205675;28;20067;-68
2022/01/24 03:21:12;;;;;;;32.00;26.90;;;24.80;99.90;;;;;;4205319;28;21574;-68
2022/01/24 03:23:19;;;;;;;34.10;26.17;;;24.80;99.90;;;;;;4206531;28;20512;-68
2022/01/24 03:25:23;;;;;;;31.33;24.60;;;24.80;99.90;;;;;;4204424;28;20083;-68
2022/01/24 03:27:28;;;;;;;29.25;23.17;;;24.90;99.90;;;;;;4207702;28;20399;-68
2022/01/24 03:29:33;;;;;;;28.35;22.92;;;24.90;99.90;;;;;;4205693;28;20039;-68
2022/01/24 03:31:39;;;;;;;29.52;22.45;;;25.00;99.90;;;;;;4204602;28;20098;-69
2022/01/24 03:33:44;;;;;;;27.83;21.55;;;25.00;99.90;;;;;;4208220;28;20040;-69
2022/01/24 03:35:48;;;;;;;26.65;20.83;;;25.10;99.90;;;;;;4206525;28;20097;-69
2022/01/24 03:37:53;;;;;;;26.95;20.80;;;25.10;99.90;;;;;;4207805;28;20052;-67
2022/01/24 03:39:57;;;;;;;28.27;18.40;;;25.10;99.90;;;;;;4206006;28;20093;-69
2022/01/24 03:42:02;;;;;;;22.35;17.92;;;25.20;99.90;;;;;;4207537;28;20131;-68
2022/01/24 03:44:07;;;;;;;22.63;18.23;;;25.30;99.90;;;;;;4207863;28;20143;-67
2022/01/24 03:46:24;;;;;;;31.88;24.98;;;25.30;99.90;;;;;;4207789;28;20059;-69
2022/01/24 03:48:41;;;;;;;31.27;25.88;;;25.40;99.90;;;;;;4208248;28;20070;-67
2022/01/24 03:50:46;;;;;;;28.90;24.17;;;25.40;99.90;;;;;;4189021;28;20040;-67
2022/01/24 03:52:51;;;;;;;25.48;21.48;;;25.40;99.90;;;;;;4204980;28;20573;-67
2022/01/24 03:54:56;;;;;;;24.55;17.40;;;25.40;99.90;;;;;;4206347;28;20498;-68
2022/01/24 03:57:00;;;;;;;20.67;17.05;;;25.50;99.90;;;;;;4207251;28;20048;-69
2022/01/24 03:59:04;;;;;;;20.25;17.58;;;25.60;99.90;;;;;;4206448;28;20105;-67
2022/01/24 04:01:09;;;;;;;22.42;16.75;;;25.60;99.90;;;;;;4208019;28;20052;-68
2022/01/24 04:03:14;;;;;;;23.55;18.35;;;25.70;99.90;;;;;;4205446;28;20044;-66
2022/01/24 04:05:18;;;;;;;24.73;18.35;;;25.70;99.90;;;;;;4206487;28;20145;-68
2022/01/24 04:07:23;;;;;;;25.00;19.00;;;25.70;99.90;;;;;;4205851;28;20071;-69
2022/01/24 04:09:28;;;;;;;26.25;21.00;;;25.70;99.90;;;;;;4208810;28;20047;-66
2022/01/24 04:11:36;;;;;;;28.20;22.05;;;25.70;99.90;;;;;;4207950;28;20040;-68
2022/01/24 04:13:44;;;;;;;25.85;20.85;;;25.70;99.90;;;;;;4207811;28;20044;-68
2022/01/24 04:18:24;;;;;;;23.38;19.30;;;25.80;99.90;;;;;;4210998;28;20052;-68
2022/01/24 04:22:49;;;;;;;30.58;21.60;;;26.00;99.90;;;;;;4209075;28;20040;-67
2022/01/24 04:25:00;;;;;;;23.23;18.98;;;26.00;99.90;;;;;;4190193;28;20394;-66
2022/01/24 04:27:05;;;;;;;23.15;16.60;;;26.00;99.60;;;;;;4210434;28;20498;-67
2022/01/24 04:29:09;;;;;;;21.60;16.38;;;26.10;98.90;;;;;;4210524;28;20040;-67
2022/01/24 04:31:13;;;;;;;19.48;15.43;;;26.10;98.20;;;;;;4209739;28;20483;-68
2022/01/24 04:33:17;;;;;;;22.02;16.05;;;26.20;97.80;;;;;;4190647;28;20044;-67
2022/01/24 04:35:22;;;;;;;20.13;15.55;;;26.20;97.50;;;;;;4210338;28;20068;-70
2022/01/24 04:37:26;;;;;;;19.02;15.43;;;26.20;97.70;;;;;;4210704;28;20077;-68
2022/01/24 04:39:30;;;;;;;18.67;13.48;;;26.30;97.70;;;;;;4194445;28;20142;-67
2022/01/24 04:41:38;;;;;;;17.90;13.82;;;26.30;97.80;;;;;;4207943;28;20429;-68
2022/01/24 04:46:07;;;;;;;18.23;14.98;;;26.40;97.60;;;;;;4208326;28;20052;-66
2022/01/24 04:52:43;;;;;;;16.42;13.02;;;26.50;97.70;;;;;;4209202;28;20412;-67
2022/01/24 04:54:48;;;;;;;18.60;12.77;;;26.70;96.80;;;;;;4204872;28;20488;-66
2022/01/24 04:56:53;;;;;;;13.63;11.98;;;26.70;97.00;;;;;;4206628;28;20047;-67
2022/01/24 04:58:59;;;;;;;15.70;12.30;;;26.80;95.50;;;;;;4210761;28;20044;-68
2022/01/24 05:01:04;;;;;;;16.58;12.95;;;26.90;95.90;;;;;;4206754;28;20054;-68
2022/01/24 05:03:10;;;;;;;16.58;13.75;;;26.90;95.90;;;;;;4210530;28;20059;-67
2022/01/24 05:05:19;;;;;;;24.38;12.65;;;26.90;96.00;;;;;;4206046;28;20071;-67
2022/01/24 05:07:23;;;;;;;15.02;11.95;;;27.00;96.10;;;;;;4191862;28;20098;-68
2022/01/24 05:09:33;;;;;;;16.30;11.70;;;27.00;95.60;;;;;;4208187;28;20693;-68
2022/01/24 05:11:51;;;;;;;17.50;13.07;;;27.00;95.60;;;;;;4190593;28;20602;-68
2022/01/24 05:25:19;;;;;;;14.27;11.38;;;27.30;94.00;;;;;;4206678;28;20490;-67
2022/01/24 05:27:24;;;;;;;15.07;11.60;;;27.30;94.10;;;;;;4189683;28;20139;-67
2022/01/24 05:29:28;;;;;;;15.63;11.70;;;27.40;94.00;;;;;;4206259;28;20706;-68
2022/01/24 05:31:32;;;;;;;16.00;11.93;;;27.40;94.20;;;;;;4207428;28;20071;-68
2022/01/24 05:33:37;;;;;;;14.57;11.65;;;27.40;94.30;;;;;;4208485;28;20405;-67
2022/01/24 05:35:41;;;;;;;18.25;12.07;;;27.40;94.40;;;;;;4205238;28;20048;-67
2022/01/24 05:37:45;;;;;;;16.88;12.65;;;27.50;94.30;;;;;;4208810;28;20399;-67
2022/01/24 05:39:49;;;;;;;15.18;11.68;;;27.50;94.80;;;;;;4207590;28;20052;-68
2022/01/24 05:41:54;;;;;;;25.13;18.40;;;27.60;95.00;;;;;;4208777;28;20083;-67
2022/01/24 05:43:58;;;;;;;35.03;26.23;;;27.70;94.50;;;;;;4190342;28;20045;-66
2022/01/24 05:46:03;;;;;;;31.92;20.30;;;27.70;94.50;;;;;;4201602;28;20055;-67
2022/01/24 05:48:08;;;;;;;21.15;16.23;;;27.80;94.70;;;;;;4208048;28;20036;-67
2022/01/24 05:50:12;;;;;;;16.88;13.05;;;27.90;94.80;;;;;;4208208;28;20616;-66
2022/01/24 05:52:16;;;;;;;13.45;11.90;;;28.00;93.60;;;;;;4208476;28;20038;-67
2022/01/24 05:54:21;;;;;;;16.85;12.30;;;28.10;92.90;;;;;;4205729;28;20032;-70
2022/01/24 05:56:29;;;;;;;15.48;12.52;;;28.10;93.00;;;;;;4208010;28;20440;-67
2022/01/24 05:58:36;;;;;;;15.82;12.82;;;28.10;93.00;;;;;;4207595;28;20036;-68
2022/01/24 06:00:44;;;;;;;16.58;12.10;;;28.10;92.30;;;;;;4208186;28;20052;-68
2022/01/24 06:02:48;;;;;;;20.20;11.77;;;28.10;92.90;;;;;;4189608;28;20127;-68
2022/01/24 06:04:54;;;;;;;13.68;11.90;;;28.10;92.20;;;;;;4206804;28;20064;-67
2022/01/24 06:06:59;;;;;;;17.85;12.88;;;28.20;92.40;;;;;;4199282;28;20145;-67
2022/01/24 06:09:03;;;;;;;15.88;12.82;;;28.20;92.40;;;;;;4206023;28;20432;-67
2022/01/24 06:11:10;;;;;;;17.58;12.85;;;28.00;92.40;;;;;;4208013;28;20036;-67
2022/01/24 06:13:15;;;;;;;23.13;12.98;;;28.00;91.60;;;;;;4207597;28;20036;-67
2022/01/24 06:15:20;;;;;;;17.95;13.13;;;27.90;91.80;;;;;;4205723;28;20122;-70
2022/01/24 06:17:24;;;;;;;20.00;12.95;;;28.00;92.40;;;;;;4207616;28;20064;-70
2022/01/24 06:19:28;;;;;;;15.55;12.55;;;28.00;92.90;;;;;;4205383;28;20557;-68
2022/01/24 06:21:33;;;;;;;19.25;12.57;;;28.00;92.90;;;;;;4207253;28;20063;-68
2022/01/24 06:23:38;;;;;;;16.92;12.27;;;28.10;92.40;;;;;;4208113;28;20056;-69
2022/01/24 06:25:43;;;;;;;16.73;12.48;;;28.20;92.30;;;;;;4205418;28;20044;-64
2022/01/24 06:27:48;;;;;;;15.50;11.65;;;28.30;92.30;;;;;;4207245;28;20046;-68
2022/01/24 06:29:52;;;;;;;16.52;11.80;;;28.40;91.00;;;;;;4207719;28;20036;-71
2022/01/24 06:31:58;;;;;;;18.15;11.52;;;28.40;91.10;;;;;;4208256;28;20044;-66
2022/01/24 06:34:03;;;;;;;13.43;11.50;;;28.40;91.70;;;;;;4208042;28;20050;-68
2022/01/24 06:36:07;;;;;;;15.32;11.30;;;28.50;90.80;;;;;;4202660;28;20037;-68
2022/01/24 06:38:11;;;;;;;16.92;12.27;;;28.50;91.10;;;;;;4187309;28;20056;-68
2022/01/24 06:40:16;;;;;;;16.45;11.38;;;28.60;90.70;;;;;;4205392;28;20048;-67
2022/01/24 06:42:23;;;;;;;14.35;11.88;;;28.50;90.10;;;;;;4205334;28;20482;-69
2022/01/24 06:44:28;;;;;;;14.05;11.57;;;28.30;90.30;;;;;;4207472;28;20409;-69
2022/01/24 06:46:32;;;;;;;13.80;11.27;;;28.20;90.90;;;;;;4205710;28;20410;-68
2022/01/24 06:48:37;;;;;;;18.17;11.27;;;28.30;91.30;;;;;;4203787;28;20043;-68
2022/01/24 06:50:41;;;;;;;12.63;11.32;;;28.40;91.10;;;;;;4207010;28;20043;-68
2022/01/24 06:52:47;;;;;;;15.35;11.57;;;28.50;90.80;;;;;;4207823;28;20047;-68
2022/01/24 06:54:52;;;;;;;16.15;12.20;;;28.60;90.90;;;;;;4205298;28;20429;-68
2022/01/24 06:56:57;;;;;;;16.08;11.63;;;28.60;91.00;;;;;;4205826;28;20691;-69
2022/01/24 06:59:01;;;;;;;18.52;11.20;;;28.60;90.90;;;;;;4208516;28;20151;-68
2022/01/24 07:01:06;;;;;;;13.23;11.35;;;28.70;90.80;;;;;;4206799;28;20047;-69
2022/01/24 07:03:11;;;;;;;16.55;10.73;;;28.70;90.60;;;;;;4208346;28;20555;-67
2022/01/24 07:05:17;;;;;;;12.15;10.75;;;28.70;91.20;;;;;;4210315;28;20071;-69
2022/01/24 07:07:22;;;;;;;12.15;10.82;;;28.80;91.20;;;;;;4208515;28;20504;-67
2022/01/24 07:09:27;;;;;;;12.98;10.63;;;28.80;91.20;;;;;;4210583;28;20040;-68
2022/01/24 07:11:32;;;;;;;14.10;10.93;;;28.80;91.20;;;;;;4210790;28;20040;-68
2022/01/24 07:13:37;;;;;;;14.25;11.35;;;28.90;91.30;;;;;;4211011;28;20040;-67
2022/01/24 07:15:48;;;;;;;14.63;11.52;;;28.90;90.90;;;;;;4209383;28;20059;-67
2022/01/24 07:18:56;;;;;;;15.45;11.38;;;28.90;90.70;;;;;;4207282;28;21182;-71
2022/01/24 07:20:17;;;;;;;15.20;11.15;;;29.00;90.50;;;;;;4208328;28;20052;-68
2022/01/24 07:22:22;;;;;;;15.45;10.93;;;29.00;87.70;;;;;;4211172;28;20464;-68
2022/01/24 07:24:27;;;;;;;13.10;10.75;;;28.90;87.90;;;;;;4210347;28;20387;-69
2022/01/24 07:26:32;;;;;;;14.52;10.82;;;28.80;88.40;;;;;;4209651;28;20039;-67
2022/01/24 07:28:36;;;;;;;16.00;11.13;;;28.80;87.30;;;;;;4208665;28;20067;-67
2022/01/24 07:30:40;;;;;;;13.23;11.82;;;28.70;87.40;;;;;;4193030;28;20507;-69
2022/01/24 07:32:45;;;;;;;15.63;12.00;;;28.80;87.80;;;;;;4211059;28;20143;-69
2022/01/24 07:34:50;;;;;;;15.07;11.23;;;28.80;87.80;;;;;;4210897;28;20509;-69
2022/01/24 07:36:55;;;;;;;15.50;11.10;;;28.80;88.60;;;;;;4209615;28;20546;-69
2022/01/24 07:39:00;;;;;;;13.98;11.75;;;28.80;88.70;;;;;;4210148;28;20044;-68
2022/01/24 07:41:06;;;;;;;11.30;10.07;;;29.00;89.40;;;;;;4209939;28;20105;-70
2022/01/24 07:43:12;;;;;;;12.15;10.25;;;29.00;89.80;;;;;;4210706;28;20122;-67
2022/01/24 07:45:18;;;;;;;15.35;12.57;;;28.90;90.20;;;;;;4208109;28;20067;-67
2022/01/24 07:47:22;;;;;;;17.17;13.20;;;28.80;89.70;;;;;;4206949;28;20332;-68
2022/01/24 07:49:27;;;;;;;13.82;11.07;;;28.80;90.00;;;;;;4207360;28;20072;-67
2022/01/24 07:51:31;;;;;;;12.80;11.23;;;28.80;89.20;;;;;;4207800;28;20039;-68
2022/01/24 07:53:35;;;;;;;14.13;10.93;;;28.80;90.00;;;;;;4209795;28;20040;-69
2022/01/24 07:55:47;;;;;;;18.67;10.85;;;28.80;89.30;;;;;;4206138;28;20035;-68
2022/01/24 07:57:51;;;;;;;15.00;10.77;;;28.80;89.40;;;;;;4207200;28;20047;-68
2022/01/24 07:59:56;;;;;;;25.67;11.18;;;28.80;89.80;;;;;;4206624;28;20555;-68
2022/01/24 08:02:01;;;;;;;21.42;10.82;;;28.80;90.00;;;;;;4209148;28;20051;-67
2022/01/24 08:04:05;;;;;;;18.83;10.82;;;28.80;90.20;;;;;;4210947;28;20078;-69
2022/01/24 08:06:10;;;;;;;12.27;9.38;;;28.80;90.00;;;;;;4209736;28;20101;-70
2022/01/24 08:08:16;;;;;;;14.30;10.73;;;28.80;89.60;;;;;;4209616;28;20406;-68
2022/01/24 08:10:21;;;;;;;12.70;9.98;;;28.80;89.60;;;;;;4210382;28;20047;-68
2022/01/24 08:12:25;;;;;;;12.45;9.48;;;28.80;89.60;;;;;;4209164;28;20079;-68
2022/01/24 08:14:29;;;;;;;14.18;9.40;;;28.80;89.90;;;;;;4209606;28;20379;-68
2022/01/24 08:16:35;;;;;;;12.38;9.90;;;28.80;89.90;;;;;;4209434;28;20174;-68
2022/01/24 08:18:39;;;;;;;11.15;9.88;;;28.80;89.60;;;;;;4207874;28;20052;-67
2022/01/24 08:20:44;;;;;;;318.42;196.70;;;28.90;89.70;;;;;;4209646;28;20262;-68
2022/01/24 08:22:49;;;;;;;215.20;139.95;;;28.90;88.90;;;;;;4209506;28;20130;-68
2022/01/24 08:24:53;;;;;;;170.63;108.10;;;29.10;86.80;;;;;;4210267;28;20040;-68
2022/01/24 08:26:58;;;;;;;148.45;81.88;;;29.10;87.30;;;;;;4209989;28;20482;-67
2022/01/24 08:29:02;;;;;;;47.10;26.92;;;29.10;86.30;;;;;;4209552;28;20044;-67
2022/01/24 08:31:06;;;;;;;28.30;13.50;;;29.20;85.10;;;;;;4208442;28;20072;-68
2022/01/24 08:33:14;;;;;;;20.95;13.25;;;29.20;85.90;;;;;;4210262;28;20052;-68
2022/01/24 08:35:19;;;;;;;42.28;24.35;;;29.20;85.50;;;;;;4208908;28;20063;-66
2022/01/24 08:37:24;;;;;;;35.78;20.50;;;29.20;84.90;;;;;;4208677;28;20416;-68
2022/01/24 08:39:29;;;;;;;29.63;18.80;;;29.10;86.10;;;;;;4209631;28;20048;-68
2022/01/24 08:41:58;;;;;;;19.20;12.77;;;29.10;86.20;;;;;;4210235;28;20119;-67
2022/01/24 08:44:11;;;;;;;21.45;13.50;;;29.10;85.90;;;;;;4209112;28;20142;-67
2022/01/24 08:46:18;;;;;;;17.88;11.65;;;29.20;85.40;;;;;;4209682;28;20048;-67
2022/01/24 08:48:22;;;;;;;19.08;12.68;;;29.20;85.40;;;;;;4209896;28;20036;-68
2022/01/24 08:50:27;;;;;;;21.77;12.60;;;29.20;84.50;;;;;;4209122;28;20439;-68
2022/01/24 08:52:32;;;;;;;47.85;29.90;;;29.10;85.00;;;;;;4209690;28;20048;-66
2022/01/24 08:54:51;;;;;;;103.35;45.83;;;29.10;85.10;;;;;;4208137;28;20136;-67
2022/01/24 08:56:55;;;;;;;32.58;18.55;;;29.20;84.80;;;;;;4209947;28;20040;-67
2022/01/24 08:59:00;;;;;;;24.05;15.30;;;29.20;84.70;;;;;;4207129;28;20651;-67
2022/01/24 09:01:04;;;;;;;16.95;12.02;;;29.10;84.40;;;;;;4207592;28;20056;-65
2022/01/24 09:03:10;;;;;;;57.75;24.27;;;29.10;85.00;;;;;;4208805;28;20591;-67
2022/01/24 09:05:14;;;;;;;21.45;13.77;;;29.10;84.80;;;;;;4191967;28;20491;-67
2022/01/24 09:07:20;;;;;;;18.50;12.30;;;29.10;84.70;;;;;;4210268;28;20097;-68
2022/01/24 09:09:24;;;;;;;21.42;13.52;;;29.10;84.90;;;;;;4208203;28;20052;-67
2022/01/24 09:11:32;;;;;;;30.65;14.40;;;29.00;85.00;;;;;;4208167;28;20048;-66
2022/01/24 09:13:37;;;;;;;26.92;13.82;;;29.00;84.60;;;;;;4209324;28;20154;-67
2022/01/24 09:15:42;;;;;;;33.35;16.55;;;29.00;84.40;;;;;;4208837;28;20039;-67
2022/01/24 09:17:46;;;;;;;23.42;14.70;;;29.00;83.30;;;;;;4208218;28;20038;-66
2022/01/24 09:19:51;;;;;;;22.50;14.25;;;29.00;84.20;;;;;;4206793;28;20040;-66
2022/01/24 09:22:15;;;;;;;61.40;30.83;;;29.00;83.60;;;;;;4208607;28;20051;-67
2022/01/24 09:24:19;;;;;;;29.95;16.00;;;29.00;83.70;;;;;;4209054;28;20072;-67
2022/01/24 09:26:23;;;;;;;37.10;18.73;;;29.00;83.70;;;;;;4208557;28;20724;-67
2022/01/24 09:28:29;;;;;;;16.70;11.38;;;29.00;83.30;;;;;;4187988;28;20048;-67
2022/01/24 09:30:33;;;;;;;18.67;11.25;;;29.00;83.40;;;;;;4205693;28;20048;-68
2022/01/24 09:32:38;;;;;;;13.13;9.65;;;29.10;82.00;;;;;;4206148;28;20052;-69
2022/01/24 09:34:42;;;;;;;14.18;9.93;;;29.20;80.70;;;;;;4206127;28;20110;-69
2022/01/24 09:36:48;;;;;;;17.58;9.23;;;29.10;81.00;;;;;;4209459;28;20048;-68
2022/01/24 09:38:53;;;;;;;17.45;8.43;;;29.10;81.30;;;;;;4188406;28;20488;-69
2022/01/24 09:41:00;;;;;;;13.40;9.18;;;29.10;81.00;;;;;;4205984;28;20091;-68
2022/01/24 09:43:04;;;;;;;14.68;9.48;;;29.00;81.30;;;;;;4189647;28;20803;-69
2022/01/24 09:45:09;;;;;;;12.68;8.60;;;29.10;79.30;;;;;;4209053;28;20044;-68
2022/01/24 09:47:16;;;;;;;17.58;9.73;;;29.10;79.40;;;;;;4206297;28;20047;-69
2022/01/24 09:49:21;;;;;;;20.70;14.18;;;29.00;78.80;;;;;;4208349;28;20044;-68
2022/01/24 09:51:25;;;;;;;26.45;13.48;;;29.00;81.50;;;;;;4204803;28;20052;-69
2022/01/24 09:53:30;;;;;;;18.83;12.48;;;29.00;81.80;;;;;;4206077;28;20130;-68
2022/01/24 09:55:34;;;;;;;22.17;14.43;;;29.00;82.80;;;;;;4205680;28;20074;-68
2022/01/24 09:57:41;;;;;;;23.77;11.75;;;29.00;83.60;;;;;;4206713;28;20067;-69
2022/01/24 09:59:45;;;;;;;19.00;11.77;;;29.00;83.00;;;;;;4209143;28;20079;-69
2022/01/24 10:01:50;;;;;;;25.52;13.93;;;29.00;83.40;;;;;;4203352;28;20128;-68
2022/01/24 10:04:16;;;;;;;20.25;12.57;;;29.00;83.70;;;;;;4204258;28;20058;-69
2022/01/24 10:06:21;;;;;;;29.80;17.90;;;28.90;83.90;;;;;;4206753;28;20109;-69
2022/01/24 10:08:26;;;;;;;38.45;21.02;;;28.90;84.60;;;;;;4206890;28;20686;-67
2022/01/24 10:10:51;;;;;;;23.30;15.15;;;28.80;85.30;;;;;;4206667;28;20043;-68
2022/01/24 10:18:09;;;;;;;30.38;16.05;;;28.70;85.40;;;;;;4206269;28;20094;-68
2022/01/24 10:20:33;;;;;;;39.30;21.77;;;28.70;85.20;;;;;;4207559;28;20536;-66
2022/01/24 10:22:37;;;;;;;30.95;20.25;;;28.60;85.40;;;;;;4205630;28;20521;-67
2022/01/24 10:24:49;;;;;;;52.22;28.75;;;28.50;85.80;;;;;;4205579;28;20067;-67
2022/01/24 10:27:15;;;;;;;47.03;25.40;;;28.50;85.40;;;;;;4206185;28;20578;-67
2022/01/24 10:29:19;;;;;;;44.88;24.67;;;28.50;86.40;;;;;;4190312;28;20422;-66
2022/01/24 10:31:28;;;;;;;94.68;47.65;;;28.40;86.20;;;;;;4203951;28;20044;-66
2022/01/24 10:33:51;;;;;;;149.90;77.47;;;28.40;86.50;;;;;;4204132;28;20071;-67
2022/01/24 10:36:04;;;;;;;57.75;29.42;;;28.40;86.90;;;;;;4205542;28;20143;-66
2022/01/24 10:38:40;;;;;;;26.80;16.90;;;28.30;86.60;;;;;;4189431;28;20052;-66
2022/01/24 10:40:49;;;;;;;24.67;14.82;;;28.30;87.10;;;;;;4210803;28;20067;-68
2022/01/24 10:42:55;;;;;;;26.75;18.75;;;28.30;87.70;;;;;;4207042;28;20063;-68
2022/01/24 10:45:15;;;;;;;29.95;21.10;;;28.30;87.70;;;;;;4175787;28;20044;-67
2022/01/24 10:47:26;;;;;;;26.55;18.48;;;28.30;87.90;;;;;;4211951;28;20630;-68
2022/01/24 10:49:31;;;;;;;34.75;20.48;;;28.20;87.50;;;;;;4210955;28;20444;-68
2022/01/24 10:51:40;;;;;;;28.70;18.83;;;28.20;87.90;;;;;;4193242;28;20049;-66
2022/01/24 10:53:46;;;;;;;39.80;28.52;;;28.20;88.10;;;;;;4209048;28;20036;-68
2022/01/24 10:55:51;;;;;;;46.97;28.65;;;28.10;87.90;;;;;;4207367;28;20507;-66
2022/01/24 10:58:16;;;;;;;42.80;28.25;;;28.10;88.50;;;;;;4208028;28;20048;-68
2022/01/24 11:00:26;;;;;;;35.65;23.38;;;28.10;89.00;;;;;;4201762;28;20147;-66
2022/01/24 11:02:40;;;;;;;36.67;22.85;;;28.10;88.70;;;;;;4199135;28;20043;-66
2022/01/24 11:04:45;;;;;;;39.00;23.75;;;28.00;89.00;;;;;;4201942;28;20097;-66
2022/01/24 11:06:51;;;;;;;39.95;24.27;;;28.00;89.40;;;;;;4204300;28;20028;-67
2022/01/24 11:09:32;;;;;;;46.17;24.60;;;28.10;89.50;;;;;;4189749;28;20082;-67
2022/01/24 11:11:37;;;;;;;38.83;22.83;;;28.00;89.40;;;;;;4206043;28;20044;-66
2022/01/24 11:13:43;;;;;;;37.03;24.58;;;28.00;90.10;;;;;;4203139;28;20130;-69
2022/01/24 11:15:55;;;;;;;45.03;25.02;;;28.00;90.20;;;;;;4205853;28;20159;-68
2022/01/24 11:18:06;;;;;;;46.38;25.58;;;28.00;90.20;;;;;;4205573;28;20039;-66
2022/01/24 11:20:14;;;;;;;40.15;27.42;;;27.90;90.50;;;;;;4204824;28;20055;-65
2022/01/24 11:22:25;;;;;;;37.35;25.60;;;27.90;90.80;;;;;;4206651;28;20052;-67
2022/01/24 11:24:51;;;;;;;43.83;28.30;;;27.90;91.00;;;;;;4206618;28;20067;-68
2022/01/24 11:27:10;;;;;;;49.50;28.33;;;27.80;91.20;;;;;;4205927;28;20059;-67
2022/01/24 11:29:16;;;;;;;45.08;27.33;;;27.80;91.40;;;;;;4206592;28;20094;-68
2022/01/24 11:31:24;;;;;;;42.08;26.67;;;27.80;91.40;;;;;;4189929;28;20044;-68
2022/01/24 11:33:40;;;;;;;45.08;26.67;;;27.70;91.50;;;;;;4205792;28;20083;-68
2022/01/24 11:35:51;;;;;;;44.85;26.33;;;27.60;91.50;;;;;;4205735;28;20072;-69
2022/01/24 11:37:57;;;;;;;42.17;24.80;;;27.60;91.80;;;;;;4206686;28;20051;-68
2022/01/24 11:40:04;;;;;;;44.47;26.10;;;27.60;91.80;;;;;;4210727;28;20040;-68
2022/01/24 11:42:09;;;;;;;44.08;26.55;;;27.60;91.90;;;;;;4209962;28;20087;-68
2022/01/24 11:44:16;;;;;;;43.05;24.73;;;27.60;92.10;;;;;;4207803;28;20048;-67
2022/01/24 11:46:46;;;;;;;36.55;23.52;;;27.60;92.10;;;;;;4207635;28;20048;-68
2022/01/24 11:49:03;;;;;;;50.15;27.40;;;27.60;92.10;;;;;;4209132;28;20063;-68
2022/01/24 11:51:11;;;;;;;47.33;26.88;;;27.50;92.50;;;;;;4204179;28;20501;-67
2022/01/24 11:53:21;;;;;;;52.65;29.30;;;27.50;92.60;;;;;;4206195;28;20036;-69
2022/01/24 11:55:36;;;;;;;53.92;29.55;;;27.50;92.60;;;;;;4206609;28;20051;-66
2022/01/24 11:57:46;;;;;;;62.25;32.97;;;27.40;92.70;;;;;;4207597;28;20055;-68
2022/01/24 12:00:13;;;;;;;76.25;36.80;;;27.40;92.80;;;;;;4204706;28;20561;-68
2022/01/24 12:02:24;;;;;;;62.80;34.22;;;27.40;93.00;;;;;;4202467;28;20047;-66
2022/01/24 12:04:48;;;;;;;70.82;34.40;;;27.30;93.00;;;;;;4199320;28;20052;-67
2022/01/24 12:07:17;;;;;;;58.28;33.47;;;27.30;93.10;;;;;;4200842;28;20067;-67
2022/01/24 12:09:24;;;;;;;92.47;43.08;;;27.30;93.20;;;;;;4202471;28;20055;-66
2022/01/24 12:11:34;;;;;;;94.40;44.25;;;27.30;93.20;;;;;;4204521;28;20040;-67
2022/01/24 12:14:02;;;;;;;166.35;89.15;;;27.30;93.40;;;;;;4202446;28;20036;-66
2022/01/24 12:16:10;;;;;;;95.63;55.45;;;27.20;93.20;;;;;;4202861;28;20044;-67
2022/01/24 12:18:22;;;;;;;120.05;63.13;;;27.20;93.30;;;;;;4203013;28;20060;-68
2022/01/24 12:20:48;;;;;;;188.73;91.43;;;27.20;93.40;;;;;;4203476;28;20075;-68
2022/01/24 12:22:52;;;;;;;139.35;72.20;;;27.10;93.50;;;;;;4203386;28;20058;-69
2022/01/24 12:24:56;;;;;;;127.10;70.07;;;27.10;93.60;;;;;;4203904;28;20052;-67